Loiza Street, PR (00911)

7:10 PM AST on September 02, 2015 (GMT -0400)
Condado | | Change Station
CLOSE
Current Station
Personal Weather Station
Location: San Juan, SAN JUAN
Elevation: 66 ft
Nearby Weather Stations

Elev 66 ft 18.45 °N, 66.06 °W | Updated 41 seconds ago

Scattered Clouds
Scattered Clouds
84.6 °F
Feels Like 93 °F
N
0.0
Wind Variable Wind from East
Gusts 0.0 mph

Today
High -- | Low -- °F
--% Chance of Precip.
Yesterday
High -- | Low -- °F
Precip. -- in
6:09 AM 6:37 PM
Waning Gibbous, 76% visible
Pressure 29.97 in
Visibility 10.0 miles
Clouds Few 4200 ft
Scattered Clouds 10000 ft
Heat Index 93 °F
Dew Point 75 °F
Humidity 72%
Rainfall 0.00 in
Snow Depth Not available.
UV 0.0 out of 12
Pollen Not available.
Air Quality Not available.
Flu Activity Not available.
METAR TJSJ 022256Z 21003KT 10SM FEW042 SCT100 31/23 A2997 RMK AO2 SLP148 T03060228
Pressure 29.97 in
Visibility 10.0 miles
Clouds Few 4200 ft
Scattered Clouds 10000 ft
Heat Index 93 °F
Dew Point 75 °F
Humidity 72%
Rainfall 0.00 in
Snow Depth Not available.
UV 0.0 out of 12
Pollen Not available.
Air Quality Not available.
Flu Activity Not available.
METAR TJSJ 022256Z 21003KT 10SM FEW042 SCT100 31/23 A2997 RMK AO2 SLP148 T03060228

10-Day Weather Forecast

×

Almanac

Astronomy

Sep. 02, 2015 Rise Set
Actual Time
Civil Twilight
Nautical Twilight
Astronomical Twilight
Moon
Length of Visible Light
Length of Day
Tomorrow will be .
, % of the Moon is Illuminated

Today's Extremes

State Highs State Lows

Community

WunderPhotos

Upload Photos

1,851,823 photos uploaded!

WunderBlogs® & News

Nearby

Air Quality

  Air Quality AQ Index Pollutant
Not available.

Snow Depth

Station Depth Elevation

Earthquake Activity

City Distance Mag. Time & Date
Minimum magnitude displayed is 2.5.

Coastal Water Temperatures

Place Temperature

Stations

Nearby Weather Stations

Station Location Temp. Windchill Dew Point Humidity Wind Precip. Elev Updated Type